Time;durP1;ratioP1;P1;durP2;ratioP2;P2;SDS_P1;SDS_P2;PMS_P1;PMS_P2;Temp;Humidity;BMP_temperature;BMP_pressure;BME280_temperature;BME280_humidity;BME280_pressure;Samples;Min_cycle;Max_cycle;Signal;HPM_P1;HPM_P2
2023/03/04 00:01:39;;;;;;;15.67;1.47;;;6.40;92.60;;;;;;5113106;27;20420;-89
2023/03/04 00:04:05;;;;;;;11.32;1.17;;;6.40;92.70;;;;;;5113784;27;20409;-89
2023/03/04 00:06:31;;;;;;;16.45;2.03;;;6.40;92.80;;;;;;5112074;27;20392;-89
2023/03/04 00:08:56;;;;;;;15.70;1.90;;;6.40;92.80;;;;;;5113440;27;20425;-89
2023/03/04 00:11:23;;;;;;;11.02;1.20;;;6.40;92.40;;;;;;5111663;27;20436;-89
2023/03/04 00:13:48;;;;;;;12.30;1.63;;;6.40;92.30;;;;;;5113653;27;20404;-87
2023/03/04 00:16:14;;;;;;;16.70;2.13;;;6.40;92.30;;;;;;5112235;27;20405;-88
2023/03/04 00:18:39;;;;;;;11.57;1.13;;;6.40;92.40;;;;;;5129892;27;20418;-89
2023/03/04 00:21:05;;;;;;;14.15;1.38;;;6.40;92.40;;;;;;5112587;27;20501;-87
2023/03/04 00:23:31;;;;;;;15.02;1.52;;;6.40;92.40;;;;;;5112125;27;20909;-89
2023/03/04 00:25:56;;;;;;;15.73;1.60;;;6.40;92.50;;;;;;5113177;27;20858;-89
2023/03/04 00:28:22;;;;;;;12.27;1.17;;;6.40;92.50;;;;;;5111582;27;20405;-89
2023/03/04 00:30:48;;;;;;;15.10;1.58;;;6.40;92.50;;;;;;5130239;27;20909;-90
2023/03/04 00:33:13;;;;;;;12.38;1.50;;;6.40;92.60;;;;;;5132867;27;20393;-89
2023/03/04 00:35:39;;;;;;;12.70;1.30;;;6.40;92.60;;;;;;5117324;27;20440;-89
2023/03/04 00:38:05;;;;;;;11.10;1.63;;;6.40;92.60;;;;;;5116430;27;20813;-89
2023/03/04 00:40:30;;;;;;;10.27;1.30;;;6.40;92.70;;;;;;5116438;27;20474;-88
2023/03/04 00:42:56;;;;;;;10.63;1.13;;;6.40;92.50;;;;;;5133703;27;20389;-89
2023/03/04 00:45:22;;;;;;;11.13;1.00;;;6.40;92.60;;;;;;5115056;27;20491;-89
2023/03/04 00:47:47;;;;;;;11.43;1.20;;;6.40;92.70;;;;;;5116705;27;20432;-91
2023/03/04 00:50:13;;;;;;;10.73;0.90;;;6.40;92.50;;;;;;5115427;27;20793;-89
2023/03/04 00:52:39;;;;;;;12.77;1.23;;;6.40;92.70;;;;;;5133866;27;20407;-89
2023/03/04 00:55:05;;;;;;;10.00;0.77;;;6.40;92.30;;;;;;5115218;27;20745;-87
2023/03/04 00:57:31;;;;;;;9.10;0.68;;;6.30;92.00;;;;;;5133533;27;20408;-90
2023/03/04 00:59:56;;;;;;;13.17;1.00;;;6.30;92.10;;;;;;5115893;27;20401;-88
2023/03/04 01:02:22;;;;;;;11.80;1.10;;;6.30;92.30;;;;;;5115073;27;20421;-88
2023/03/04 01:04:47;;;;;;;10.40;0.88;;;6.30;92.40;;;;;;5115863;27;20401;-89
2023/03/04 01:07:13;;;;;;;12.93;1.07;;;6.30;92.50;;;;;;5114472;27;20481;-88
2023/03/04 01:09:39;;;;;;;11.15;1.10;;;6.30;92.60;;;;;;5116503;27;21081;-89
2023/03/04 01:12:05;;;;;;;9.07;1.00;;;6.30;92.80;;;;;;5114700;27;20835;-89
2023/03/04 01:14:30;;;;;;;9.60;0.95;;;6.30;93.00;;;;;;5133599;27;20404;-89
2023/03/04 01:16:56;;;;;;;12.48;1.38;;;6.40;93.10;;;;;;5115345;27;20888;-88
2023/03/04 01:19:22;;;;;;;11.85;1.10;;;6.30;93.20;;;;;;5133427;27;20397;-89
2023/03/04 01:21:47;;;;;;;12.87;1.30;;;6.40;93.40;;;;;;5115750;27;20434;-88
2023/03/04 01:24:13;;;;;;;10.07;0.97;;;6.30;93.80;;;;;;5115035;27;20409;-89
2023/03/04 01:26:38;;;;;;;11.02;1.48;;;6.30;94.10;;;;;;5116031;27;20910;-89
2023/03/04 01:29:04;;;;;;;15.03;1.33;;;6.30;94.40;;;;;;5114580;27;20437;-89
2023/03/04 01:31:30;;;;;;;12.88;1.33;;;6.30;94.50;;;;;;5133302;27;20471;-88
2023/03/04 01:33:55;;;;;;;13.15;1.85;;;6.30;94.60;;;;;;5114466;27;20401;-88
2023/03/04 01:36:21;;;;;;;15.07;1.70;;;6.30;94.80;;;;;;5115722;27;20450;-88
2023/03/04 01:38:47;;;;;;;15.07;1.20;;;6.30;95.00;;;;;;5132086;27;20415;-87
2023/03/04 01:41:13;;;;;;;15.07;1.02;;;6.30;94.90;;;;;;5131706;27;20421;-88
2023/03/04 01:43:39;;;;;;;13.45;1.67;;;6.30;95.00;;;;;;5114635;27;20397;-88
2023/03/04 01:46:05;;;;;;;15.77;2.30;;;6.30;95.00;;;;;;5131037;27;20409;-89
2023/03/04 01:48:35;;;;;;;13.60;1.77;;;6.30;94.90;;;;;;5115595;27;20405;-89
2023/03/04 01:51:05;;;;;;;13.75;1.48;;;6.30;94.90;;;;;;5114169;27;20393;-88
2023/03/04 01:53:32;;;;;;;14.32;1.63;;;6.30;94.90;;;;;;5116027;27;20426;-88
2023/03/04 01:56:13;;;;;;;12.13;1.60;;;6.20;94.70;;;;;;5131396;27;20389;-89
2023/03/04 01:58:39;;;;;;;14.02;1.65;;;6.20;94.50;;;;;;5131662;27;20401;-89
2023/03/04 02:01:04;;;;;;;12.50;1.23;;;6.30;94.60;;;;;;5132598;27;20412;-89
2023/03/04 02:03:30;;;;;;;13.37;1.30;;;6.20;94.50;;;;;;5131117;27;20445;-89
2023/03/04 02:05:56;;;;;;;14.17;1.70;;;6.20;94.50;;;;;;5115590;27;20483;-89
2023/03/04 02:08:23;;;;;;;12.95;1.60;;;6.20;94.50;;;;;;5130603;27;20405;-88
2023/03/04 02:10:50;;;;;;;12.07;1.00;;;6.20;94.30;;;;;;5132376;27;20407;-89
2023/03/04 02:13:16;;;;;;;11.27;1.00;;;6.30;93.80;;;;;;5114878;27;20721;-88
2023/03/04 02:15:44;;;;;;;10.57;1.35;;;6.20;93.50;;;;;;5114445;27;20418;-89
2023/03/04 02:18:18;;;;;;;12.38;1.52;;;6.30;93.40;;;;;;5114857;27;20404;-88
2023/03/04 02:21:09;;;;;;;9.20;1.20;;;6.30;93.20;;;;;;5130766;27;20995;-89
2023/03/04 02:24:14;;;;;;;13.35;1.70;;;6.30;93.50;;;;;;5115349;27;20408;-89
2023/03/04 02:26:42;;;;;;;13.23;1.77;;;6.30;93.50;;;;;;5073818;27;20499;-89
2023/03/04 02:29:10;;;;;;;10.45;1.23;;;6.30;93.50;;;;;;5113625;27;20453;-88
2023/03/04 02:31:38;;;;;;;11.35;1.35;;;6.30;93.40;;;;;;5115166;27;20962;-89
2023/03/04 02:34:15;;;;;;;13.48;1.23;;;6.30;93.30;;;;;;5130752;27;20400;-90
2023/03/04 02:36:42;;;;;;;10.40;1.30;;;6.30;93.20;;;;;;5132401;27;20840;-89
2023/03/04 02:39:18;;;;;;;13.07;1.02;;;6.30;93.30;;;;;;5113317;27;20415;-89
2023/03/04 02:41:44;;;;;;;7.60;1.10;;;6.30;93.30;;;;;;5114023;27;20416;-87
2023/03/04 02:44:25;;;;;;;12.15;1.30;;;6.30;93.40;;;;;;5114763;27;20394;-88
2023/03/04 02:46:52;;;;;;;11.75;0.80;;;6.30;93.20;;;;;;5112960;27;20407;-89
2023/03/04 02:49:18;;;;;;;10.73;1.27;;;6.30;93.30;;;;;;5114581;27;20400;-88
2023/03/04 02:51:45;;;;;;;10.15;0.90;;;6.30;93.40;;;;;;5130567;27;20493;-89
2023/03/04 02:54:20;;;;;;;10.57;0.93;;;6.30;93.40;;;;;;5114129;27;20411;-88
2023/03/04 02:56:48;;;;;;;8.35;1.20;;;6.30;93.40;;;;;;5113942;27;20453;-89
2023/03/04 02:59:14;;;;;;;11.38;1.05;;;6.30;93.40;;;;;;5130404;27;20385;-89
2023/03/04 03:01:40;;;;;;;13.30;1.40;;;6.30;93.40;;;;;;5113968;27;20480;-88
2023/03/04 03:04:06;;;;;;;9.50;0.77;;;6.30;93.40;;;;;;5113130;27;20787;-89
2023/03/04 03:06:31;;;;;;;10.25;0.93;;;6.30;93.40;;;;;;5114445;27;20448;-89
2023/03/04 03:08:57;;;;;;;11.53;1.20;;;6.30;93.50;;;;;;5112605;27;20999;-88
2023/03/04 03:11:22;;;;;;;6.93;0.90;;;6.30;93.30;;;;;;5131605;27;20945;-90
2023/03/04 03:13:48;;;;;;;10.68;1.02;;;6.30;93.30;;;;;;5113385;27;20834;-88
2023/03/04 03:16:14;;;;;;;7.60;0.90;;;6.30;93.40;;;;;;5113595;27;20415;-89
2023/03/04 03:18:40;;;;;;;10.77;1.07;;;6.40;93.50;;;;;;5113600;27;20397;-89
2023/03/04 03:21:06;;;;;;;11.15;1.05;;;6.30;93.90;;;;;;5129720;27;20421;-89
2023/03/04 03:23:32;;;;;;;12.53;1.23;;;6.60;94.10;;;;;;5114400;27;20393;-89
2023/03/04 03:25:58;;;;;;;8.65;0.95;;;6.30;94.20;;;;;;5129322;27;20389;-88
2023/03/04 03:28:23;;;;;;;11.35;1.00;;;6.40;94.50;;;;;;5114312;27;20393;-88
2023/03/04 03:30:49;;;;;;;11.43;1.23;;;6.30;94.60;;;;;;5129647;27;20476;-89
2023/03/04 03:33:15;;;;;;;10.98;1.20;;;6.30;94.60;;;;;;5114194;27;20401;-89
2023/03/04 03:35:40;;;;;;;13.90;1.27;;;6.30;94.70;;;;;;5113018;27;20401;-88
2023/03/04 03:38:06;;;;;;;12.33;0.80;;;6.30;94.70;;;;;;5113350;27;20407;-89
2023/03/04 03:40:32;;;;;;;10.30;0.87;;;6.30;94.90;;;;;;5113635;27;20421;-89
2023/03/04 03:42:57;;;;;;;10.43;1.17;;;6.40;95.10;;;;;;5111641;27;20823;-88
2023/03/04 03:45:23;;;;;;;10.00;1.42;;;6.30;95.20;;;;;;5113577;27;20401;-88
2023/03/04 03:47:48;;;;;;;11.70;1.20;;;6.30;95.50;;;;;;5112266;27;20449;-87
2023/03/04 03:50:14;;;;;;;10.00;0.90;;;6.30;95.30;;;;;;5113418;27;20401;-88
2023/03/04 03:52:40;;;;;;;8.70;0.98;;;6.30;95.50;;;;;;5112125;27;20393;-89
2023/03/04 03:55:06;;;;;;;12.35;1.73;;;6.30;95.50;;;;;;5112781;27;20923;-89
2023/03/04 03:57:32;;;;;;;11.55;1.20;;;6.30;95.70;;;;;;5113345;27;20450;-89
2023/03/04 03:59:57;;;;;;;10.73;1.00;;;6.30;95.60;;;;;;5112484;27;20396;-89
2023/03/04 04:02:23;;;;;;;10.37;1.17;;;6.30;95.80;;;;;;5113313;27;20500;-89
2023/03/04 04:04:48;;;;;;;9.77;0.90;;;6.30;95.80;;;;;;5112202;27;20994;-87
2023/03/04 04:07:14;;;;;;;9.10;0.70;;;6.30;95.90;;;;;;5116043;27;20479;-88
2023/03/04 04:09:40;;;;;;;9.07;0.70;;;6.30;96.00;;;;;;5133408;27;20420;-89
2023/03/04 04:12:06;;;;;;;8.75;0.52;;;6.40;96.30;;;;;;5117556;27;20401;-89
2023/03/04 04:14:32;;;;;;;11.35;1.00;;;6.30;96.20;;;;;;5116259;27;20389;-88
2023/03/04 04:16:58;;;;;;;7.38;0.90;;;6.30;96.10;;;;;;5117009;27;20554;-88
2023/03/04 04:19:24;;;;;;;10.57;0.75;;;6.30;96.30;;;;;;5134551;27;20545;-89
2023/03/04 04:21:50;;;;;;;8.97;0.60;;;6.30;96.30;;;;;;5133219;27;21006;-88
2023/03/04 04:24:15;;;;;;;9.53;0.70;;;6.30;96.10;;;;;;5134586;27;20425;-89
2023/03/04 04:26:41;;;;;;;7.28;0.85;;;6.30;96.10;;;;;;5115810;27;20405;-89
2023/03/04 04:29:08;;;;;;;8.35;0.60;;;6.40;96.20;;;;;;5134793;27;20729;-89
2023/03/04 04:31:34;;;;;;;8.00;0.90;;;6.40;96.20;;;;;;5116530;27;20389;-88
2023/03/04 04:34:00;;;;;;;8.43;0.90;;;6.40;96.20;;;;;;5133875;27;20389;-90
2023/03/04 04:36:26;;;;;;;9.07;0.60;;;6.40;96.20;;;;;;5134042;27;20403;-89
2023/03/04 04:38:52;;;;;;;8.10;0.50;;;6.40;96.10;;;;;;5116193;27;20389;-88
2023/03/04 04:41:23;;;;;;;7.00;0.40;;;6.40;96.40;;;;;;5116999;27;20433;-89
2023/03/04 04:43:49;;;;;;;7.43;0.80;;;6.40;96.20;;;;;;5115971;27;20450;-89
2023/03/04 04:46:15;;;;;;;7.47;0.80;;;6.40;96.10;;;;;;5117302;27;20884;-88
2023/03/04 04:48:41;;;;;;;6.22;0.50;;;6.40;96.20;;;;;;5132414;27;20393;-89
2023/03/04 04:51:07;;;;;;;6.70;0.60;;;6.40;96.30;;;;;;5116505;27;20412;-90
2023/03/04 04:53:33;;;;;;;7.18;0.60;;;6.30;96.30;;;;;;5133380;27;20445;-88
2023/03/04 04:55:59;;;;;;;8.47;0.73;;;6.50;96.60;;;;;;5116152;27;20408;-91
2023/03/04 04:58:25;;;;;;;8.40;0.68;;;6.20;97.20;;;;;;5117109;27;20417;-89
2023/03/04 05:00:50;;;;;;;6.97;0.50;;;5.90;97.60;;;;;;5132889;27;20424;-89
2023/03/04 05:03:16;;;;;;;7.23;0.40;;;6.30;97.90;;;;;;5117353;27;20782;-89
2023/03/04 05:05:42;;;;;;;4.45;0.20;;;6.30;98.00;;;;;;5115220;27;20397;-89
2023/03/04 05:08:07;;;;;;;7.10;0.43;;;6.40;98.10;;;;;;5117040;27;20397;-90
2023/03/04 05:10:33;;;;;;;5.40;0.37;;;6.30;98.30;;;;;;5115825;27;20409;-90
2023/03/04 05:12:58;;;;;;;4.47;0.50;;;6.30;98.50;;;;;;5116649;27;20913;-89
2023/03/04 05:15:24;;;;;;;5.38;0.40;;;6.30;98.70;;;;;;5116514;27;20393;-89
2023/03/04 05:17:50;;;;;;;4.82;0.40;;;6.30;98.80;;;;;;5115637;27;20520;-90
2023/03/04 05:20:16;;;;;;;6.10;0.30;;;6.40;99.00;;;;;;5134039;27;20393;-89
2023/03/04 05:22:41;;;;;;;6.50;0.50;;;6.30;98.90;;;;;;5115189;27;20899;-89
2023/03/04 05:25:07;;;;;;;5.63;0.50;;;6.30;98.90;;;;;;5116806;27;20392;-89
2023/03/04 05:27:33;;;;;;;8.30;0.60;;;6.30;99.10;;;;;;5131702;27;20393;-89
2023/03/04 05:29:58;;;;;;;6.53;0.80;;;6.30;99.50;;;;;;5116564;27;20390;-89
2023/03/04 05:32:24;;;;;;;10.30;0.63;;;6.30;99.70;;;;;;5115066;27;20396;-87
2023/03/04 05:34:50;;;;;;;6.67;0.60;;;6.30;99.80;;;;;;5115865;27;21105;-89
2023/03/04 05:37:15;;;;;;;7.00;0.47;;;6.20;99.90;;;;;;5116379;27;20401;-89
2023/03/04 05:39:41;;;;;;;6.63;0.50;;;6.20;99.90;;;;;;5114763;27;20763;-90
2023/03/04 05:42:06;;;;;;;9.47;0.90;;;6.20;99.90;;;;;;5116169;27;20424;-89
2023/03/04 05:44:32;;;;;;;9.95;0.60;;;6.10;99.90;;;;;;5114795;27;20487;-89
2023/03/04 05:46:58;;;;;;;7.00;0.60;;;6.10;99.90;;;;;;5116407;27;20405;-89
2023/03/04 05:49:23;;;;;;;10.67;0.70;;;6.00;99.90;;;;;;5114446;27;20437;-89
2023/03/04 05:51:49;;;;;;;9.93;1.10;;;6.00;99.90;;;;;;5132712;27;20975;-89
2023/03/04 05:54:15;;;;;;;9.13;1.00;;;6.00;99.90;;;;;;5132531;27;20412;-89
2023/03/04 05:56:40;;;;;;;12.13;0.90;;;6.00;99.90;;;;;;5114649;27;20409;-89
2023/03/04 05:59:06;;;;;;;11.23;0.77;;;5.90;99.90;;;;;;5120997;27;20394;-88
2023/03/04 06:01:32;;;;;;;7.40;0.70;;;6.00;99.90;;;;;;5097887;27;20432;-90
2023/03/04 06:03:57;;;;;;;13.98;1.10;;;5.90;99.90;;;;;;5105097;27;20402;-89
2023/03/04 06:06:23;;;;;;;9.73;0.77;;;5.80;99.90;;;;;;5110507;27;20403;-89
2023/03/04 06:08:48;;;;;;;9.20;0.80;;;5.80;99.90;;;;;;5112204;27;20437;-89
2023/03/04 06:11:14;;;;;;;9.77;0.87;;;6.40;99.90;;;;;;5111355;27;20459;-89
2023/03/04 06:13:40;;;;;;;9.82;1.10;;;5.60;99.90;;;;;;5111242;27;20441;-88
2023/03/04 06:16:06;;;;;;;8.10;0.75;;;5.70;99.90;;;;;;5112397;27;20452;-89
2023/03/04 06:18:31;;;;;;;8.82;0.85;;;5.60;99.90;;;;;;5110903;27;20497;-88
2023/03/04 06:20:59;;;;;;;10.27;0.80;;;5.60;99.90;;;;;;5112157;27;20478;-89
2023/03/04 06:23:25;;;;;;;7.90;0.90;;;5.60;99.90;;;;;;5110414;27;20489;-89
2023/03/04 06:25:55;;;;;;;10.13;0.87;;;5.60;99.90;;;;;;5112159;27;20399;-89
2023/03/04 06:28:22;;;;;;;11.38;1.05;;;5.60;99.90;;;;;;5127084;27;20407;-89
2023/03/04 06:30:50;;;;;;;9.70;0.90;;;5.60;99.90;;;;;;5109728;27;20403;-89
2023/03/04 06:33:15;;;;;;;11.43;0.80;;;5.60;99.90;;;;;;5128096;27;20892;-88
2023/03/04 06:35:41;;;;;;;7.55;0.70;;;5.70;99.90;;;;;;5110427;27;20391;-89
2023/03/04 06:38:06;;;;;;;8.45;0.60;;;5.70;99.90;;;;;;5128116;27;20403;-89
2023/03/04 06:40:32;;;;;;;10.13;1.03;;;6.00;99.90;;;;;;5110418;27;20936;-89
2023/03/04 06:42:58;;;;;;;9.85;0.90;;;5.70;99.90;;;;;;5111635;27;20440;-87
2023/03/04 06:45:28;;;;;;;10.82;1.00;;;6.00;99.90;;;;;;5125886;27;20889;-89
2023/03/04 06:47:58;;;;;;;9.40;1.07;;;5.80;99.90;;;;;;5106468;28;20938;-88
2023/03/04 06:50:24;;;;;;;9.43;1.17;;;5.80;99.90;;;;;;5107526;28;20432;-88
2023/03/04 06:52:49;;;;;;;11.52;0.85;;;6.10;99.90;;;;;;5090205;28;20450;-87
2023/03/04 06:55:15;;;;;;;10.88;0.90;;;5.80;99.90;;;;;;5090305;28;20483;-89
2023/03/04 06:57:40;;;;;;;11.57;0.97;;;5.90;99.90;;;;;;5089840;28;20408;-90
2023/03/04 07:00:07;;;;;;;10.97;1.53;;;5.90;99.90;;;;;;5107858;28;20392;-89
2023/03/04 07:02:32;;;;;;;12.90;1.67;;;5.90;99.90;;;;;;5088868;28;20423;-88
2023/03/04 07:04:58;;;;;;;12.63;1.57;;;5.90;99.90;;;;;;5090827;28;20836;-89
2023/03/04 07:07:25;;;;;;;13.30;1.60;;;5.90;99.90;;;;;;5089428;28;20405;-90
2023/03/04 07:09:50;;;;;;;11.88;1.83;;;6.00;99.90;;;;;;5107237;28;20400;-88
2023/03/04 07:12:16;;;;;;;13.07;1.70;;;6.20;99.90;;;;;;5090084;28;20397;-89
2023/03/04 07:14:41;;;;;;;11.10;1.60;;;6.00;99.90;;;;;;5089369;28;20728;-89
2023/03/04 07:17:07;;;;;;;8.15;0.77;;;6.00;99.90;;;;;;5090135;28;20407;-91
2023/03/04 07:19:33;;;;;;;8.63;1.00;;;6.00;99.90;;;;;;5089638;28;20491;-90
2023/03/04 07:21:58;;;;;;;13.43;0.90;;;6.00;99.90;;;;;;5090552;28;20524;-91
2023/03/04 07:24:24;;;;;;;8.85;0.80;;;6.00;99.90;;;;;;5105917;28;20894;-89
2023/03/04 07:26:49;;;;;;;14.30;1.13;;;6.00;99.90;;;;;;5090629;28;20404;-89
2023/03/04 07:29:15;;;;;;;12.60;1.13;;;6.00;99.90;;;;;;5089388;28;20938;-90
2023/03/04 07:31:41;;;;;;;11.88;0.70;;;6.00;99.90;;;;;;5107196;28;20403;-89
2023/03/04 07:34:09;;;;;;;9.20;1.10;;;6.00;99.90;;;;;;5107650;28;20428;-89
2023/03/04 07:36:35;;;;;;;14.45;1.70;;;6.30;99.90;;;;;;5089130;28;20400;-88
2023/03/04 07:39:01;;;;;;;14.00;2.00;;;6.10;99.90;;;;;;5107383;28;20475;-90
2023/03/04 07:41:28;;;;;;;16.67;5.43;;;6.40;99.90;;;;;;5087443;28;20511;-90
2023/03/04 07:43:56;;;;;;;21.92;8.07;;;6.20;99.90;;;;;;5090622;28;20404;-89
2023/03/04 07:46:22;;;;;;;24.65;9.55;;;6.30;99.90;;;;;;5088941;28;20843;-90
2023/03/04 07:48:48;;;;;;;21.35;6.13;;;6.20;99.90;;;;;;5089414;28;20510;-90
2023/03/04 07:51:16;;;;;;;17.20;4.50;;;6.30;99.90;;;;;;5090212;28;20958;-89
2023/03/04 07:53:44;;;;;;;22.40;5.82;;;6.50;99.90;;;;;;5089370;28;20741;-90
2023/03/04 07:56:15;;;;;;;21.45;5.22;;;6.40;99.90;;;;;;5104897;28;22017;-90
2023/03/04 07:58:42;;;;;;;18.73;3.70;;;6.40;99.90;;;;;;5088331;28;20412;-90
2023/03/04 08:01:16;;;;;;;17.20;3.30;;;6.50;99.90;;;;;;5106441;28;20443;-89
2023/03/04 08:03:42;;;;;;;16.48;2.15;;;6.50;99.90;;;;;;5088532;28;20745;-89
2023/03/04 08:06:10;;;;;;;19.00;2.00;;;6.50;99.90;;;;;;5088928;28;20403;-89
2023/03/04 08:08:36;;;;;;;16.75;1.83;;;6.40;99.90;;;;;;5105984;28;20440;-89
2023/03/04 08:11:06;;;;;;;17.03;2.10;;;6.50;99.90;;;;;;5088018;28;20966;-90
2023/03/04 08:13:33;;;;;;;14.23;1.80;;;6.40;99.90;;;;;;5089618;28;20425;-89
2023/03/04 08:15:58;;;;;;;17.20;2.37;;;6.40;99.90;;;;;;5088312;28;21211;-90
2023/03/04 08:18:24;;;;;;;15.00;2.00;;;6.50;99.80;;;;;;5089745;28;20419;-90
2023/03/04 08:20:51;;;;;;;14.18;1.95;;;6.50;99.30;;;;;;5086966;28;20428;-90
2023/03/04 08:23:17;;;;;;;17.30;1.60;;;6.50;98.50;;;;;;5089956;28;20403;-89
2023/03/04 08:25:43;;;;;;;14.48;1.90;;;6.60;98.60;;;;;;5089223;28;20907;-90
2023/03/04 08:28:09;;;;;;;12.30;1.55;;;6.60;98.20;;;;;;5088665;28;20414;-89
2023/03/04 08:30:35;;;;;;;16.25;1.80;;;6.80;98.20;;;;;;5089357;28;20487;-93
2023/03/04 08:33:02;;;;;;;10.82;1.42;;;6.70;97.90;;;;;;5088763;28;20530;-91
2023/03/04 08:35:28;;;;;;;9.70;1.00;;;6.80;97.10;;;;;;5090263;28;20428;-90
2023/03/04 08:37:54;;;;;;;9.75;1.35;;;6.80;95.90;;;;;;5088556;28;20835;-91
2023/03/04 08:40:19;;;;;;;11.10;1.33;;;6.90;95.30;;;;;;5090199;28;20733;-89
2023/03/04 08:42:45;;;;;;;10.90;1.37;;;6.90;95.20;;;;;;5088721;28;20491;-90
2023/03/04 08:45:11;;;;;;;11.52;1.50;;;7.30;95.50;;;;;;5089214;28;20523;-91
2023/03/04 08:47:37;;;;;;;13.10;1.40;;;7.30;95.40;;;;;;5089726;28;20400;-87
2023/03/04 08:50:05;;;;;;;16.92;2.28;;;6.80;95.30;;;;;;5088054;28;20438;-90
2023/03/04 08:52:30;;;;;;;12.57;1.98;;;7.00;95.60;;;;;;5107578;28;20422;-90
2023/03/04 08:54:56;;;;;;;13.00;1.50;;;6.90;95.10;;;;;;5091851;28;20408;-91
2023/03/04 08:57:22;;;;;;;12.57;1.63;;;7.30;95.10;;;;;;5093416;28;20457;-90
2023/03/04 08:59:48;;;;;;;13.43;2.08;;;7.00;95.80;;;;;;5109179;28;20412;-89
2023/03/04 09:02:14;;;;;;;15.77;1.83;;;7.00;95.90;;;;;;5092604;28;20424;-89
2023/03/04 09:04:39;;;;;;;18.60;2.20;;;6.90;96.20;;;;;;5109815;28;20798;-90
2023/03/04 09:07:05;;;;;;;14.70;1.80;;;7.00;95.60;;;;;;5091934;28;20491;-89
2023/03/04 09:09:31;;;;;;;17.08;2.50;;;7.00;96.10;;;;;;5092987;28;20428;-89
2023/03/04 09:11:56;;;;;;;17.00;2.47;;;7.10;96.10;;;;;;5091657;28;20401;-92
2023/03/04 09:14:22;;;;;;;16.37;2.10;;;7.10;96.20;;;;;;5093036;28;20770;-89
2023/03/04 09:16:48;;;;;;;14.73;2.07;;;7.20;95.90;;;;;;5091263;28;20404;-89
2023/03/04 09:19:13;;;;;;;15.77;1.90;;;7.40;95.90;;;;;;5093107;28;20801;-91
2023/03/04 09:21:39;;;;;;;18.17;2.05;;;7.20;95.60;;;;;;5108956;28;20430;-90
2023/03/04 09:24:05;;;;;;;17.80;2.53;;;7.20;95.70;;;;;;5096748;27;20396;-89
2023/03/04 09:26:31;;;;;;;18.90;2.83;;;7.30;95.90;;;;;;5096410;28;21249;-90
2023/03/04 09:28:59;;;;;;;16.17;2.47;;;7.30;96.00;;;;;;5108111;28;20747;-89
2023/03/04 09:31:26;;;;;;;14.90;2.38;;;7.30;95.90;;;;;;5109223;28;20463;-90
2023/03/04 09:33:52;;;;;;;14.55;2.05;;;7.30;95.30;;;;;;5111556;27;20395;-90
2023/03/04 09:36:18;;;;;;;17.73;3.50;;;7.30;93.80;;;;;;5113089;27;20414;-89
2023/03/04 09:38:45;;;;;;;15.85;2.20;;;7.60;93.40;;;;;;5111567;27;20387;-89
2023/03/04 09:41:26;;;;;;;13.50;1.50;;;7.50;92.70;;;;;;5129460;27;20419;-88
2023/03/04 09:43:53;;;;;;;12.57;1.70;;;7.50;92.80;;;;;;5112532;27;20410;-88
2023/03/04 09:46:38;;;;;;;11.40;1.40;;;7.60;92.30;;;;;;5128549;27;20403;-91
2023/03/04 09:49:04;;;;;;;10.30;1.67;;;7.60;91.90;;;;;;5113295;27;20475;-90
2023/03/04 09:51:55;;;;;;;12.48;1.35;;;7.50;91.80;;;;;;5127913;27;20395;-88
2023/03/04 09:54:44;;;;;;;8.27;1.30;;;7.50;92.90;;;;;;5112004;27;20440;-89
2023/03/04 09:57:34;;;;;;;8.05;0.90;;;7.40;92.90;;;;;;5129717;27;20442;-89
2023/03/04 10:00:24;;;;;;;7.03;0.68;;;7.50;93.30;;;;;;5100617;27;20516;-88
2023/03/04 10:03:10;;;;;;;7.25;0.70;;;7.60;92.40;;;;;;5103861;27;20436;-88
2023/03/04 10:05:52;;;;;;;5.43;0.35;;;7.70;92.80;;;;;;5117570;27;20413;-89
2023/03/04 10:08:27;;;;;;;7.38;0.75;;;7.80;92.50;;;;;;5103987;28;20443;-90
2023/03/04 10:10:55;;;;;;;5.03;0.60;;;7.90;91.70;;;;;;5092215;28;20429;-91
2023/03/04 10:13:40;;;;;;;5.25;0.40;;;8.00;91.10;;;;;;5090459;28;20400;-89
2023/03/04 10:16:11;;;;;;;6.13;0.50;;;8.20;92.20;;;;;;5090839;28;20487;-88
2023/03/04 10:18:44;;;;;;;4.65;0.30;;;8.40;91.60;;;;;;5090897;28;20472;-90
2023/03/04 10:21:27;;;;;;;4.97;0.40;;;8.50;91.80;;;;;;5106771;28;20974;-89
2023/03/04 10:23:53;;;;;;;6.43;0.47;;;8.50;91.80;;;;;;5091711;28;20416;-91
2023/03/04 10:26:20;;;;;;;6.45;0.70;;;8.40;91.90;;;;;;5090049;28;20759;-89
2023/03/04 10:28:47;;;;;;;10.02;0.90;;;8.00;92.80;;;;;;5107989;28;20396;-89
2023/03/04 10:31:21;;;;;;;12.77;1.10;;;7.90;94.40;;;;;;5107168;28;20476;-89
2023/03/04 10:33:47;;;;;;;9.30;0.80;;;7.80;94.30;;;;;;5089586;28;20442;-88
2023/03/04 10:36:29;;;;;;;10.85;1.10;;;7.80;95.10;;;;;;5108173;28;20424;-90
2023/03/04 10:39:16;;;;;;;10.13;0.95;;;7.90;95.10;;;;;;5089832;28;20447;-89
2023/03/04 10:41:44;;;;;;;9.23;0.93;;;7.90;95.20;;;;;;5090684;28;20518;-89
2023/03/04 10:44:10;;;;;;;11.38;1.40;;;7.80;95.20;;;;;;5089561;28;20487;-89
2023/03/04 10:46:46;;;;;;;10.35;1.08;;;7.80;95.00;;;;;;5091328;28;20488;-88
2023/03/04 10:49:18;;;;;;;11.35;1.02;;;7.80;95.00;;;;;;5090672;28;20400;-88
2023/03/04 10:51:45;;;;;;;12.98;1.52;;;8.00;95.00;;;;;;5089329;28;20835;-90
2023/03/04 10:54:39;;;;;;;8.63;1.25;;;8.20;93.80;;;;;;5090339;28;20423;-89
2023/03/04 10:57:14;;;;;;;13.57;1.40;;;8.60;93.60;;;;;;5089635;28;20714;-88
2023/03/04 10:59:49;;;;;;;14.95;1.50;;;9.10;93.10;;;;;;5106907;28;20764;-89
2023/03/04 11:02:21;;;;;;;11.73;1.40;;;9.20;91.60;;;;;;5090191;28;20496;-89
2023/03/04 11:05:13;;;;;;;13.07;1.50;;;9.00;91.20;;;;;;5105433;28;20782;-89
2023/03/04 11:07:44;;;;;;;12.82;2.40;;;8.60;90.40;;;;;;5107013;28;20416;-89
2023/03/04 11:10:30;;;;;;;12.77;1.20;;;8.50;90.30;;;;;;5098016;28;20914;-89
2023/03/04 11:13:02;;;;;;;12.15;1.60;;;8.60;87.60;;;;;;5094667;27;20905;-90
2023/03/04 11:15:30;;;;;;;10.40;1.30;;;8.80;85.40;;;;;;5127564;27;20437;-88
2023/03/04 11:18:18;;;;;;;10.88;1.17;;;9.10;87.70;;;;;;5126916;27;20398;-90
2023/03/04 11:20:47;;;;;;;12.40;1.42;;;9.00;83.00;;;;;;5110398;27;20383;-89
2023/03/04 11:23:18;;;;;;;11.88;1.50;;;8.90;85.60;;;;;;5110562;27;20391;-91
2023/03/04 11:25:48;;;;;;;11.50;1.40;;;8.80;85.50;;;;;;5109873;27;20781;-90
2023/03/04 11:28:46;;;;;;;11.57;1.38;;;8.70;87.20;;;;;;5110451;27;20404;-90
2023/03/04 11:31:29;;;;;;;12.88;1.65;;;8.80;85.70;;;;;;5108497;27;20757;-88
2023/03/04 11:34:01;;;;;;;11.25;1.63;;;9.00;84.60;;;;;;5109983;28;20398;-89
2023/03/04 11:36:45;;;;;;;15.68;1.60;;;9.10;85.10;;;;;;5109913;27;20414;-91
2023/03/04 11:39:41;;;;;;;15.27;1.70;;;9.10;84.30;;;;;;5109258;27;20410;-87
2023/03/04 11:42:36;;;;;;;15.38;1.88;;;8.90;85.40;;;;;;5085459;27;20451;-90
2023/03/04 11:45:03;;;;;;;14.95;2.13;;;8.50;87.80;;;;;;5127697;27;20410;-89
2023/03/04 11:47:28;;;;;;;17.00;2.15;;;8.20;90.00;;;;;;5109643;28;20410;-89
2023/03/04 11:50:19;;;;;;;15.25;2.10;;;8.20;90.20;;;;;;5127049;27;20407;-90
2023/03/04 11:52:59;;;;;;;14.98;2.00;;;8.30;90.90;;;;;;5126937;27;20410;-89
2023/03/04 11:55:55;;;;;;;14.10;1.90;;;8.30;90.40;;;;;;5109935;28;20402;-90
2023/03/04 11:58:47;;;;;;;14.70;1.55;;;8.30;91.00;;;;;;5109171;28;20436;-90
2023/03/04 12:01:36;;;;;;;10.38;1.40;;;8.30;90.30;;;;;;5103069;28;20867;-92
2023/03/04 12:04:40;;;;;;;12.80;1.75;;;8.30;87.30;;;;;;5109715;28;20403;-91
2023/03/04 12:07:38;;;;;;;14.95;2.00;;;8.50;86.50;;;;;;5109932;28;20448;-88
2023/03/04 12:10:41;;;;;;;12.80;1.53;;;9.00;89.20;;;;;;5098946;28;20414;-89
2023/03/04 12:13:35;;;;;;;15.63;1.85;;;9.40;85.40;;;;;;5089079;28;20594;-88
2023/03/04 12:16:22;;;;;;;15.77;2.75;;;9.20;86.60;;;;;;5088011;28;20413;-91
2023/03/04 12:18:48;;;;;;;15.25;2.08;;;8.70;87.20;;;;;;5087718;28;20477;-90
2023/03/04 12:21:41;;;;;;;19.70;2.67;;;8.40;86.10;;;;;;5089817;28;20428;-90
2023/03/04 12:24:44;;;;;;;15.52;1.95;;;8.20;88.10;;;;;;5089189;28;20965;-91
2023/03/04 12:27:20;;;;;;;18.40;2.30;;;8.30;87.60;;;;;;5093365;27;20403;-89
2023/03/04 12:30:05;;;;;;;17.48;2.90;;;8.30;87.30;;;;;;5105474;27;20415;-89
2023/03/04 12:32:57;;;;;;;16.15;2.33;;;8.60;88.10;;;;;;5112909;27;20402;-89
2023/03/04 12:35:50;;;;;;;14.23;1.88;;;9.30;83.10;;;;;;5112114;27;20405;-90
2023/03/04 12:38:31;;;;;;;12.25;1.58;;;9.60;77.90;;;;;;5113841;27;20762;-89
2023/03/04 12:41:28;;;;;;;15.55;2.40;;;9.50;79.70;;;;;;5129534;27;20479;-89
2023/03/04 12:44:09;;;;;;;15.88;2.40;;;9.30;80.00;;;;;;5097762;28;20417;-89
2023/03/04 12:46:36;;;;;;;18.08;2.72;;;9.10;81.60;;;;;;5108348;27;20411;-90
2023/03/04 12:49:34;;;;;;;15.27;2.33;;;8.70;80.50;;;;;;5112035;27;20823;-88
2023/03/04 12:52:12;;;;;;;13.95;2.58;;;8.40;84.10;;;;;;5094267;27;20411;-88
2023/03/04 12:54:46;;;;;;;12.97;1.90;;;8.30;87.20;;;;;;5092448;28;20415;-89
2023/03/04 12:57:13;;;;;;;16.30;2.47;;;8.80;85.60;;;;;;5090589;28;20984;-90
2023/03/04 13:00:09;;;;;;;12.70;2.00;;;9.60;86.00;;;;;;5093308;28;20422;-89
2023/03/04 13:02:50;;;;;;;12.43;1.73;;;10.30;84.60;;;;;;5091130;28;20432;-89
2023/03/04 13:05:42;;;;;;;10.90;1.60;;;10.50;76.80;;;;;;5091618;28;20524;-89